-1 Query Result

LUMCON's Bayouside Classroom: Query Results


Try Another Query    Instructions for saving Query Results    View Delimited Text File for this Query   
UserNameUserIDGroupNumberLocationLocationIDSampleDateSampleTimeBottomTempTopTempBottomSalinityTopSalinityBottomDOTopDOBottompHToppHBottomTurbidityTopTurbidityDepth
Bdrickamer 89 OaklawnJHS 15 1/1/1900 10:02 NA NA NA NA NA NA NA NA 38 NA 
agriffin 88 OaklawnJHS 15 1/1/1900 12:26 NA 24 NA 1.002 NA  NA 8.6 NA 10 NA 
agriffin 88 OaklawnJHS 15 1/1/1900 12:25 NA 24 NA NA 25 NA 9.2 NA 15 NA 
agriffin 88 NA OaklawnJHS 15 1/1/1900  NA NA NA NA NA NA NA NA  NA NA 
agriffin 88 OaklawnJHS 15 1/1/1900 07:43 NA 25 NA NA 2.2 NA 6.8  NA 
pchampagne 49 OaklawnJHS 15 10/13/2004 9:50 NA 23 NA NA NA 3.2 NA 7.7 NA NA NA 
pchampagne 49 OaklawnJHS 15 10/21/2004 8:54 NA 25 NA NA 3.4 NA 7.3 NA NA NA 
pchampagne 49 OaklawnJHS 15 10/21/2004 8:54 NA 25 NA NA NA 7.3 NA NA NA 
pchampagne 49 OaklawnJHS 15 10/21/2004 9:55 NA 24 NA NA 3.6 NA 7.3 NA NA NA 
pchampagne 49 OaklawnJHS 15 10/21/2004 9:55 NA 24 NA 0.3 NA 3.6 NA 7.3 NA NA NA 
pchampagne 49 OaklawnJHS 15 10/21/2004 10:00 NA 24 NA NA 3.6 NA 7.3 NA NA NA 
pchampagne 49 OaklawnJHS 15 10/21/2004 8:54 NA 24 NA NA 3.4 NA 6.9 NA NA NA 
mtheriot 56 OaklawnJHS 15 10/21/2004 12:53 NA 29 NA NA 3.9 NA 7.7 NA NA NA 
pchampagne 49 OaklawnJHS 15 1/20/2005 10:00 NA NA 0.1 NA 4.0 NA 7.0 na na NA 
Lumcon OaklawnJHS 15 1/25/2005 10:00 NA 14 NA NA 2.1 NA 7.6 na na NA 
Lumcon OaklawnJHS 15 1/26/2005 09:50 NA 19 NA 0.3 NA 4.5 NA 7.2 na na NA 
mtheriot 56 OaklawnJHS 15 1/29/2005 07:00 NA 17 NA 1.0 NA 3.4 NA 8.1 na na NA 
Lumcon OaklawnJHS 15 2/10/2005 10:00 18 NA 7.2 NA 5.6 NA 7.2 NA na na NA 
mtheriot 56 OaklawnJHS 15 10/14/2005 13:45 NA 30 NA NA NA NA NA 7.6 na na 31 
Bdrickamer 89 NA OaklawnJHS 15 4/24/2007  NA 21.1 NA NA NA 7.22 NA 50 NA 
Bdrickamer 89 NA OaklawnJHS 15 4/24/2007  NA 20.9 NA NA 5.5 NA 7.33 NA 22 NA 
Bdrickamer 89 NA OaklawnJHS 15 4/24/2007  NA 21 NA NA NA 7.56 NA 10 NA 
Bdrickamer 89 NA OaklawnJHS 15 4/24/2007  NA 21.3 NA NA NA 7.23 NA NA NA 
Bdrickamer 89 NA OaklawnJHS 15 4/24/2007  NA 21.4 NA NA 5.2 NA 7.24 NA 31.4 NA 
Bdrickamer 89 NA OaklawnJHS 15 4/24/2007  NA 21.0 NA NA 7.2 NA 7.28 NA 26.25 NA 
Bdrickamer 89 NA OaklawnJHS 15 4/24/2007  NA 21.4 NA NA NA NA 7.01 NA 15 NA 
Bdrickamer 89 NA OaklawnJHS 15 4/24/2007  NA 21.4 NA NA NA 7.61 NA 38.5 NA 
Bdrickamer 89 NA OaklawnJHS 15 4/24/2007  NA 21 NA NA NA 7.99 NA 27 NA 
Bdrickamer 89 OaklawnJHS 15 5/3/2007 09:45 NA 25.4 NA NA NA  NA 8.3 NA NA 
Bdrickamer 89 OaklawnJHS 15 5/3/2007 09:45 NA 25.8 NA NA NA 3.5 NA 7.66 NA NA 
Lumcon NA OaklawnJHS 15 5/14/2007 0945 NA 21.4 NA NA NA 7.39 NA 38 NA 
Lumcon NA OaklawnJHS 15 5/14/2007  NA 26.1 NA NA NA 7.17 NA 27 NA 
Lumcon NA OaklawnJHS 15 5/14/2007 0945 NA 26.5 NA NA 2.4 NA 7.6 NA NA 
Lumcon NA OaklawnJHS 15 5/14/2007 0945 NA 26.2 NA NA NA 8.2 NA 44 NA 
Lumcon NA OaklawnJHS 15 5/14/2007  NA 26.4 NA NA NA NA NA 
Lumcon NA OaklawnJHS 15 5/14/2007 0945 NA 26.2 NA NA NA 7.15 NA 13 NA 
Lumcon NA OaklawnJHS 15 5/14/2007 0945 NA 26.6 NA NA NA 7.94 NA 40 NA 
Lumcon NA OaklawnJHS 15 5/14/2007 0915 NA 22.5 NA NA 10 NA 8.02 NA 25 NA 
Lumcon NA OaklawnJHS 15 5/14/2007 0945 NA 27.5 NA NA NA 7.1 NA 10 NA 
Lumcon NA OaklawnJHS 15 5/14/2007 0945 NA 27.1 NA NA 5.6 NA 7.4 NA 16.2 NA 
Lumcon NA OaklawnJHS 15 5/15/2007 0945 NA 22 NA NA NA 7.27 NA 1.5 NA 
Lumcon NA OaklawnJHS 15 5/15/2007 0945 NA 25 NA NA NA NA 7.65 NA NA 
Lumcon NA OaklawnJHS 15 5/15/2007  NA 24.7 NA NA NA NA 7.0 NA NA 
Lumcon NA OaklawnJHS 15 5/15/2007 0935 NA 24.9 NA NA 5.2 NA 7.46 NA 31 NA 
Lumcon NA OaklawnJHS 15 5/15/2007 0945 NA 24.5 NA NA 5.4 NA 7.65 NA 38 NA 
Lumcon NA OaklawnJHS 15 5/15/2007 0945 NA 24.9 NA NA NA 7.17 NA 1.3 NA 
Bdrickamer 89 NA OaklawnJHS 15 5/15/2007 0945 NA 26.5 NA NA NA 7.25 NA 10.5 NA 
Bdrickamer 89 NA OaklawnJHS 15 5/15/2007 0945 NA 25.1 NA NA NA 7.98 NA 37 NA 
Bdrickamer 89 NA OaklawnJHS 15 5/15/2007 0945 NA 24.8 NA NA NA 25 NA 35 NA 
Bdrickamer 89 OaklawnJHS 15 5/15/2007 09:45 NA 25.1 NA NA NA NA 7.98 NA 37 NA 
Bdrickamer 89 OaklawnJHS 15 5/16/2007 09:45 NA 25.9 NA NA NA NA 7.86 NA 13.2 NA 
Bdrickamer 89 OaklawnJHS 15 5/17/2007 09:45 NA 22.5 NA NA NA NA 7.86 NA 45.2 NA 
Bdrickamer 89 OaklawnJHS 15 5/18/2007 09:45 NA 21.7 NA NA NA 4.2 NA 7.83 NA 16.3 NA 
Bdrickamer 89 OaklawnJHS 15 5/18/2007 09:55 NA 20 NA NA NA NA 7.60 NA NA 
Bdrickamer 89 NA OaklawnJHS 15 5/18/2007 0950 NA 21 NA NA 10 NA 7.5 NA 60 NA 
Bdrickamer 89 NA OaklawnJHS 15 5/18/2007 0940 NA 20.9 NA NA 2.2 NA 7.01 NA 60 NA 
Bdrickamer 89 NA OaklawnJHS 15 5/18/2007 950 NA 21.3 NA NA 3.8 NA 7.46 NA 54.7 NA 
Bdrickamer 89 NA OaklawnJHS 15 5/18/2007 0950 NA 20.8 NA NA NA 8.4 NA 40 NA 
Bdrickamer 89 NA OaklawnJHS 15 5/18/2007 0950 NA 21.6 NA NA 2.4 NA 7.15 NA 29 NA 
Bdrickamer 89 NA OaklawnJHS 15 5/18/2007 0950 NA 20 NA NA NA 7.60 NA NA 
Bdrickamer 89 NA OaklawnJHS 15 5/18/2007 0950 NA 19.8 NA NA 3.6 NA 7.3 NA 54.9 NA 
Bdrickamer 89 NA OaklawnJHS 15 5/18/2007 0950 NA 21.1 NA NA NA 7.00 NA 25 NA 
Bdrickamer 89 NA OaklawnJHS 15 5/18/2007 0950 NA 22.3 NA NA NA 8.94 NA 60 NA 
Bdrickamer 89 NA OaklawnJHS 15 5/21/2007 0935 NA 23.7 NA NA NA NA 7.0 NA 60 NA 
Bdrickamer 89 NA OaklawnJHS 15 5/21/2007  NA 22.3 NA NA NA 7.0 NA 35 NA 
Bdrickamer 89 NA OaklawnJHS 15 5/21/2007 0935 NA 23.7 NA NA NA NA 7.52 NA 53 NA 
Bdrickamer 89 NA OaklawnJHS 15 5/21/2007 0935 NA 7.88 NA NA NA 7.83 NA 60 NA 
Bdrickamer 89 NA OaklawnJHS 15 5/21/2007  NA 24 NA NA 2.1 NA 7.35 NA 49 NA 
Bdrickamer 89 NA OaklawnJHS 15 5/21/2007  NA 24.3 NA NA 4.3 NA 7.62 NA 7.3 NA 
Bdrickamer 89 NA OaklawnJHS 15 5/21/2007  NA 24.9 NA NA NA NA 6.86 NA 60 NA 
Bdrickamer 89 NA OaklawnJHS 15 5/21/2007  NA 23.5 NA NA 3.8 NA 7.17 NA 46.3 NA 
Bdrickamer 89 NA OaklawnJHS 15 5/21/2007  NA 23.4 NA NA NA 7.90 NA 60 NA 
Bdrickamer 89 OaklawnJHS 15 5/21/2007 09:45 NA 24.3 NA NA NA 4.3 NA 7.62 NA 4.3 NA 
Bdrickamer 89 OaklawnJHS 15 10/29/2007 09:50  16.9 NA  NA 3.4 NA 7.84 NA 13.4 NA 
Bdrickamer 89 OaklawnJHS 15 10/29/2007 09:50  18.2 NA  NA 8.0 NA 7.83 NA 15.4 NA 
Bdrickamer 89 OaklawnJHS 15 10/29/2007 09:45 NA 14.2 NA  NA 6.0 NA 7.8 NA 18 NA 
Bdrickamer 89 OaklawnJHS 15 10/29/2007 09:50 NA 17.6 NA NA NA 6.2 NA 7.85 NA 16.2 NA 
Bdrickamer 89 NA OaklawnJHS 15 10/29/2007 09:50 NA NA NA NA NA NA NA NA NA NA NA 
Bdrickamer 89 OaklawnJHS 15 10/29/2007 09:50 NA 17.4 NA  NA 4.0 NA 7.58 NA 13.1 NA 
Bdrickamer 89 OaklawnJHS 15 10/29/2007 09:50 NA 17.9 NA  NA 4.4 NA 8.20 NA NA 
Bdrickamer 89 OaklawnJHS 15 10/29/2007 09:50 NA 19 NA NA NA 7.5 NA 7.78 NA 60 NA 
Bdrickamer 89 OaklawnJHS 15 11/5/2007 09;55 NA 21.8 NA NA NA 8.0 NA 8.75 NA 15 NA 
Bdrickamer 89 OaklawnJHS 15 11/5/2007 09:50 NA 20.6 NA NA NA 10 NA 8.56 NA 26.4 NA 
Bdrickamer 89 OaklawnJHS 15 11/5/2007 09:50 NA 23.4 NA  NA 11.8 NA 21.7 NA 11.0 NA 
Bdrickamer 89 OaklawnJHS 15 11/5/2007 09:50 NA 20.6 NA  NA 10.6 NA 8.4 NA 30.6 NA 
Bdrickamer 89 OaklawnJHS 15 11/5/2007 9:50  19.8 NA  NA 9.6 NA 8.31 NA 35 NA 
Lumcon OaklawnJHS 15 11/9/2007 10:21 23 19 18 17 6.2 7.8 7.6 30 30 NA 
Bdrickamer 89 OaklawnJHS 15 12/18/2007 10:02 NA  NA NA NA 4.0 NA NA NA 46.2 NA 
Bdrickamer 89 OaklawnJHS 15 12/18/2007 10:02 NA NA NA NA NA 6.8 NA NA NA 56 NA 
Bdrickamer 89 OaklawnJHS 15 12/18/2007 10:02 NA NA NA NA NA 4.5 NA NA NA 20.2 NA 
Bdrickamer 89 OaklawnJHS 15 12/18/2007  NA NA NA NA NA NA NA NA NA NA NA 
Bdrickamer 89 NA OaklawnJHS 15 12/18/2007 10:02 NA NA NA NA 2.5 NA NA NA 4.8 NA NA 
Bdrickamer 89 OaklawnJHS 15 12/18/2007 10:02 NA NA NA NA NA 3.6 NA NA NA 21 NA 
Bdrickamer 89 OaklawnJHS 15 12/18/2007  NA NA NA NA NA NA NA NA NA 26.4 NA 
Bdrickamer 89 OaklawnJHS 15 2/14/2008 09:56 NA 13.8 NA NA NA 7.5 NA 7.32 NA NA NA 
Bdrickamer 89 OaklawnJHS 15 2/14/2008 9:46 14.2 NA 500 NA NA NA 7.3 NA 20.6 NA NA 
Bdrickamer 89 OaklawnJHS 15 2/14/2008 09:56 NA 13.1 NA  NA 5.8 NA 76.7 NA 29.2 NA 
Bdrickamer 89 OaklawnJHS 15 2/14/2008  NA 9.4 NA 480 NA 6.2 NA 7.42 NA 20.5 NA 
Bdrickamer 89 OaklawnJHS 15 2/14/2008 952 NA 25 NA  NA 8.1 NA 7.83 NA 41.2 NA 
Bdrickamer 89 OaklawnJHS 15 2/15/2008 0951  14.1 NA  277 NA 8.4 NA 7.42 NA 27.2 NA 
Bdrickamer 89 OaklawnJHS 15 4/7/2008 10:00 NA 25 NA NA NA 3.4 NA NA NA 46.6 NA 
Bdrickamer 89 OaklawnJHS 15 4/7/2008 10:00 NA 25 NA  NA NA  NA 35 NA 
Bdrickamer 89 OaklawnJHS 15 4/7/2008 10:00 NA 24 NA NA NA NA NA NA 22.2 NA 
Bdrickamer 89 OaklawnJHS 15 4/7/2008 10:00 19.5 NA NA NA 2.6 NA NA NA 17 NA NA 
Bdrickamer 89 OaklawnJHS 15 4/7/2008 10:00 20.5 NA NA NA NA NA NA 41 NA NA 
Bdrickamer 89 OaklawnJHS 15 4/7/2008 10:00  25 NA  NA 2.0 NA NA NA 35.4 NA 
Bdrickamer 89 OaklawnJHS 15 12/14/2008 9:56 NA 15.4 NA NA NA 5.5 NA 7.42 NA 25 NA 
agriffin 88 OaklawnJHS 15 2/6/2009 12:38 NA 22 NA 1.002 NA NA NA NA 13cm NA 
agriffin 88 OaklawnJHS 15 2/6/2009 12:38 NA 21 NA 1.002 NA  NA 8.9 NA 12 NA 
agriffin 88 OaklawnJHS 15 2/6/2009 12:28 NA 20 NA 1.003 NA NA NA 8.7 NA 11 CM NA 
agriffin 88 OaklawnJHS 15 2/6/2009 12:38 NA 21 NA 1.001 NA  NA 8.6 NA 14 NA 
agriffin 88 OaklawnJHS 15 2/6/2009 12:38 NA 20 NA 1.001 NA NA NA 8.6 NA 14 NA 
agriffin 88 OaklawnJHS 15 2/6/2009   22 NA 1.003 NA  NA 8.8 NA 10 NA 
agriffin 88 OaklawnJHS 15 2/6/2009 12:38 NA 22 NA 1.002 NA NA NA NA 13cm NA 
agriffin 88 OaklawnJHS 15 2/6/2009 12:38 NA 21 NA 1.003 NA NA NA 8.7 NA NA 
agriffin 88 OaklawnJHS 15 2/6/2009 12:26  21.0 NA 1.000 NA  NA 8.3 NA 15 NA 
agriffin 88 OaklawnJHS 15 2/9/2009 12:26 NA 21 NA NA 2.8 NA 8.9 NA 12cm NA 
agriffin 88 OaklawnJHS 15 2/9/2009 1226 NA 22 NA 1.002 NA ,104 NA 9.1 NA 8 cm NA 
agriffin 88 OaklawnJHS 15 2/9/2009 12:26 NA 22 NA 1.001 NA 9.0 NA 8.7 NA NA 
agriffin 88 OaklawnJHS 15 2/9/2009 12:26 NA 22 NA 1.001 NA 9.0 NA 9.2  NA 13.0 NA 
agriffin 88 OaklawnJHS 15 2/9/2009 12:26 NA 20 NA 1.2 NA 2.0 NA 8.7 NA NA 
agriffin 88 OaklawnJHS 15 2/9/2009 12:26 NA 22 NA 1.000 NA 6.8 NA 8.9 NA 6.5 NA 
agriffin 88 4  OaklawnJHS 15 2/11/2009 12:25 NA 23  NA 1.001 NA 14 NA 9.0 NA 18 NA 
agriffin 88 OaklawnJHS 15 2/11/2009 12:25 NA 23 NA 1.2 NA 3.6 NA 8.8 NA NA 
agriffin 88 OaklawnJHS 15 2/11/2009 12:25 NA 23 NA 1.002 NA 98 NA 9.1 NA 8 cm NA 
agriffin 88 OaklawnJHS 15 2/11/2009 12:25 NA 23 NA 1.001 NA 8.6 NA 8.8 NA 12cm NA 
agriffin 88 OaklawnJHS 15 2/11/2009 12:25 NA 22 NA 1.001 NA NA NA 8.8 NA 15.4 NA 
agriffin 88 OaklawnJHS 15 2/11/2009 12:24 NA 22 NA 1.002 NA 7.08 NA 8.7 NA 10 NA 
agriffin 88 OaklawnJHS 15 2/19/2009 12:26 NA 21 NA NA 6.04 NA 9.4 NA NA 
agriffin 88 OaklawnJHS 15 2/19/2009 12.26  22 NA NA  NA 9.2 NA 9.9 NA 
agriffin 88 OaklawnJHS 15 2/19/2009 12:26 NA 22 NA NA 13 NA 9.2 NA 15 NA 
agriffin 88 OaklawnJHS 15 12/11/2009 12:22 NA 22 NA 1.001 NA 7.6 NA 8.8 NA 13 NA 
agriffin 88 OaklawnJHS 15 12/19/2009 12:26  20 NA NA  NA 8.9 NA 9.9 NA 
agriffin 88 OaklawnJHS 15 10/27/2010 12:44 NA 30 NA NA  NA NA  10 NA 
agriffin 88 OaklawnJHS 15 10/27/2010 12:44 NA 30 NA NA NA NA NA  NA 
agriffin 88 OaklawnJHS 15 10/27/2010 12:44 NA 31 NA NA NA NA NA  5.8 NA 
agriffin 88 OaklawnJHS 15 10/27/2010 12;44 NA 30  NA NA NA NA  4.5 NA 
agriffin 88 OaklawnJHS 15 10/27/2010 12:44 NA 19 NA NA  NA NA   NA 
agriffin 88 OaklawnJHS 15 10/27/2010 12:44 NA 25 NA NA  NA   NA 
agriffin 88 OaklawnJHS 15 10/27/2010 12:44 NA 27 NA NA  NA   4 1/8 NA 
agriffin 88 OaklawnJHS 15 10/27/2010 12:44 NA 25 NA NA  NA   NA 
agriffin 88 NA OaklawnJHS 15 10/27/2010 0800 NA NA NA NA NA NA NA NA  NA NA 
agriffin 88 1.3 OaklawnJHS 15 10/27/2010 08:00 NA NA NA NA NA NA NA NA  NA NA 
agriffin 88 OaklawnJHS 15 10/27/2010 08:00  20 NA NA NA NA NA  NA 
agriffin 88 OaklawnJHS 15 10/27/2010 08:00 NA 25 NA NA NA NA NA NA  NA 
agriffin 88 OaklawnJHS 15 10/27/2010 08:00 NA 26 NA NA NA NA NA NA  NA 
agriffin 88 OaklawnJHS 15 10/27/2010 08:00 NA 15 NA NA NA NA NA NA  NA 
agriffin 88 OaklawnJHS 15 10/27/2010 08:00 NA 29 NA NA NA NA NA NA  10.5 NA 
agriffin 88 OaklawnJHS 15 10/27/2010 08:00  23 NA NA NA NA NA NA  14.6 NA 
agriffin 88 OaklawnJHS 15 10/29/2010 08:00 NA NA NA NA NA  6.4 NA 
agriffin 88 OaklawnJHS 15 10/29/2010 08:00 NA NA NA NA NA  NA 
agriffin 88 OaklawnJHS 15 10/29/2010 08:00 NA 11 NA NA 3.2 NA NA  15 NA 
agriffin 88 OaklawnJHS 15 10/29/2010 08:00 NA 16 NA NA 6.3 NA NA  NA 
agriffin 88 OaklawnJHS 15 10/29/2010 0800  14 NA NA 3.4 NA   NA 
agriffin 88 OaklawnJHS 15 10/29/2010 08:00 NA 18 NA NA NA NA  NA 
agriffin 88 OaklawnJHS 15 10/29/2010 08:00 NA NA NA NA NA  NA 
agriffin 88 OaklawnJHS 15 10/29/2010 12:35 NA 25 NA NA NA NA  10 NA 
agriffin 88 OaklawnJHS 15 10/29/2010 12:35 NA 15 NA NA NA NA  22.6 NA 
agriffin 88 OaklawnJHS 15 10/29/2010 12:35 NA 12 NA NA NA NA  NA 
agriffin 88 OaklawnJHS 15 10/29/2010 12:35 NA 23 NA 1.1 NA 7.2 NA NA  4cm NA 
agriffin 88 OaklawnJHS 15 10/29/2010 12:35 NA 17 NA NA NA NA   14 NA 
agriffin 88 OaklawnJHS 15 10/29/2010 12:35  25 NA NA NA   10 NA 
agriffin 88 OaklawnJHS 15 10/29/2010 12:35 NA 23 NA NA 4.6 NA NA  14 NA 
agriffin 88 OaklawnJHS 15 11/1/2010 12:28 NA 28 NA 1.1 NA NA  NA 
agriffin 88 OaklawnJHS 15 11/1/2010 12:28 NA 29 NA NA 6.2 NA 8.1  13 NA 
agriffin 88 OaklawnJHS 15 11/1/2010 12:28 NA 31 NA NA 4.4 NA 8.0  12 NA 
agriffin 88 OaklawnJHS 15 11/1/2010 12:28 NA 28 NA NA 58 NA 8.1  16 NA 
agriffin 88 OaklawnJHS 15 11/1/2010 12:28 NA 31 NA NA 6.4 NA 8.2  13 NA 
agriffin 88 OaklawnJHS 15 11/1/2010 12;28 NA 30 NA 1.05 NA 5.2 NA 7.7  NA 
agriffin 88 OaklawnJHS 15 11/1/2010 12:28 NA 20 NA NA NA  NA 
agriffin 88 OaklawnJHS 15 11/1/2010 07:29 NA 20 NA NA 1.2 NA 7.7  2.6 NA 
agriffin 88 OaklawnJHS 15 11/1/2010 07:42 NA NA NA .8 NA 7.8  16 NA 
agriffin 88 OaklawnJHS 15 11/1/2010 07:42 NA 20 NA NA 14 NA 7.8  NA 
agriffin 88 OaklawnJHS 15 11/1/2010 07:42 NA 20 NA NA 3.24 NA 8.3  30 NA 
agriffin 88 OaklawnJHS 15 11/1/2010 07:42 NA 20 NA NA NA 8.5  NA 
agriffin 88 OaklawnJHS 15 11/1/2010 0742 NA 16 NA NA 0.4 NA 7.5  NA 
agriffin 88 OaklawnJHS 15 11/2/2010 07:44 NA 22 NA NA NA 8.2  16 NA 
agriffin 88 OaklawnJHS 15 11/2/2010 07:42 NA 20 NA NA 1.2 NA 7.5  18 NA 
agriffin 88 OaklawnJHS 15 11/2/2010 0743 NA 12 NA NA 3.2 NA 7.6  25 NA 
agriffin 88 OaklawnJHS 15 11/2/2010 07:43 NA 22 NA NA NA 7.8  14.75 NA 
agriffin 88 OaklawnJHS 15 11/2/2010 07:43 NA 20 NA NA 2.2 NA 7.6  9.5 NA 
agriffin 88 NA OaklawnJHS 15 11/2/2010  NA 25 NA NA 2.2 NA 6.8  NA 
agriffin 88 OaklawnJHS 15 11/3/2010 07:38 NA 20 NA NA NA 7.9  23 NA 
agriffin 88 OaklawnJHS 15 11/3/2010 07:38 NA 22 NA NA NA 8.5  17 NA 
agriffin 88 OaklawnJHS 15 11/3/2010 07:38  20 NA NA 6.8 NA 7.5  52 NA 
agriffin 88 OaklawnJHS 15 11/3/2010 07:38 NA 20 NA NA NA 8.4  30 NA 
agriffin 88 OaklawnJHS 15 11/3/2010 07:38 NA 10 NA NA NA 8.0  19 NA 
agriffin 88 OaklawnJHS 15 11/3/2010 07:38 NA 23 NA NA 6.2 NA 6.5  57 NA 
Lumcon OaklawnJHS 15 11/2/2011  NA 16 NA NA NA NA NA NA  NA NA 
Lumcon OaklawnJHS 15 11/2/2011  NA 15 NA NA NA NA NA NA  NA NA 
Lumcon OaklawnJHS 15 11/2/2011  NA 18 NA NA NA NA NA NA  NA NA 
Lumcon OaklawnJHS 15 11/2/2011  NA 15 NA NA NA NA NA NA  NA NA 
Lumcon OaklawnJHS 15 11/2/2011  NA 17 NA NA NA NA NA NA  NA NA 
Lumcon N3 OaklawnJHS 15 11/3/2011  NA 20 NA NA NA NA NA  26 NA 
Lumcon OaklawnJHS 15 11/3/2011  NA 11 NA NA NA NA NA  29.4 NA 
Lumcon OaklawnJHS 15 11/3/2011  NA 20 NA NA NA NA NA  NA NA 
Lumcon OaklawnJHS 15 11/3/2011  NA NA NA NA NA NA  12 NA 
Lumcon OaklawnJHS 15 11/3/2011  NA 17 NA NA NA NA NA  10 NA 
Lumcon OaklawnJHS 15 11/3/2011  NA 17 NA NA NA NA NA  NA 
Lumcon OaklawnJHS 15 11/4/2011  NA NA NA NA NA 8.5  NA 
Lumcon OaklawnJHS 15 11/4/2011  NA NA NA NA NA 8.3  10 NA 
Lumcon OaklawnJHS 15 11/4/2011  NA 10 NA NA NA NA 8.5  15 NA 
Lumcon OaklawnJHS 15 11/4/2011  NA NA NA NA NA 8.2  25 NA 
Lumcon OaklawnJHS 15 11/4/2011  NA 15 NA NA  NA 7.5  22 NA 
Lumcon OaklawnJHS 15 11/4/2011  NA 13 NA NA NA NA 7.6  15 NA 
Lumcon OaklawnJHS 15 11/4/2011  NA 13 NA NA NA NA 7.6  15 NA 
Lumcon OaklawnJHS 15 11/7/2011  NA 22 NA NA NA 7.6  11 NA 
Lumcon OaklawnJHS 15 11/7/2011  NA 19 NA NA NA NA 8.4  16.25 NA 
Lumcon OaklawnJHS 15 11/7/2011  NA 22 NA NA 5.8 NA 7.8  21 NA 
Lumcon OaklawnJHS 15 11/7/2011  NA 21 NA NA 2.6 NA  15.5 NA 
Lumcon OaklawnJHS 15 11/7/2011  NA 19 NA NA 7.8 NA 8.2  12.5 NA 
Lumcon OaklawnJHS 15 11/8/2011  NA 18 NA NA 2.6 NA  12 NA 
Lumcon OaklawnJHS 15 11/8/2011  NA 23 NA NA 4.4 NA 7.7  NA 
Lumcon OaklawnJHS 15 11/8/2011  NA NA NA 1.5 NA 7.5  15 NA 
Lumcon OaklawnJHS 15 11/8/2011  NA NA NA NA NA NA NA NA  NA NA 
Lumcon OaklawnJHS 15 11/8/2011  NA 24 NA NA 10 NA 8.2  18 NA 
Lumcon OaklawnJHS 15 11/9/2011 9:04 NA NA NA NA NA 8.0  25 NA 
Lumcon OaklawnJHS 15 11/9/2011 9:04 NA 23 NA NA 4.6 NA  19 NA 
Lumcon OaklawnJHS 15 11/9/2011  NA 19 NA NA NA NA 8.1  NA 
Lumcon OaklawnJHS 15 11/9/2011  NA 22 NA NA NA 8.1  20 NA 
Lumcon OaklawnJHS 15 11/9/2011  NA 20 NA NA 8.5 NA 8.2  17 NA 
agriffin 88 OaklawnJHS 15 11/9/2011 9:04 NA 18 NA NA NA  25 NA